Flight Track Log - Related Links

Times and Time Zones

All times are in EDT time to prevent confusion due to time zone crossing. See the UPS1337 flight status page for this flight to view local times or setup timezone preferences in your user account.

Time Position Orientation Groundspeed Altitude Reporting Facility
EDT Latitude Longitude Course Direction KTS MPH feet Rate Location/Type
Wed 09:49:14 PM 27.9167 -82.6833 319° Northwest 158 182 800  Level Tampa TRACON
Wed 09:49:32 PM 27.9333 -82.7000 319° Northwest 169 194 1,600 2,000 Climbing Tampa TRACON
Wed 09:50:26 PM 27.9833 -82.6833 16° North 265 305 3,200 3,139 Climbing Tampa TRACON
Wed 09:52:03 PM 28.0978 -82.7325 339° North 276 318 9,500 2,867 Climbing Jacksonville Center
Wed 09:57:35 PM 28.6751 -82.9727 342° North 443 510 23,700 2,371 Climbing FlightAware ADS-B
Wed 09:59:03 PM 28.8344 -83.0206 342° North 438 504 26,100 1,714 Climbing Jacksonville Center
Wed 10:00:02 PM 28.9617 -83.0564 346° North 450 518 27,900 2,100 Climbing Jacksonville Center
Wed 10:01:03 PM 29.0847 -83.0922 346° North 455 524 30,300 2,380 Climbing Jacksonville Center
Wed 10:02:03 PM 29.2058 -83.1258 346° North 455 524 32,700 1,850 Climbing Jacksonville Center
Wed 10:03:03 PM 29.3350 -83.1642 345° North 442 509 34,000 650 Climbing Jacksonville Center
Wed 10:04:03 PM 29.4539 -83.1978 346° North 437 503 34,000  Level Jacksonville Center
Wed 10:05:03 PM 29.5772 -83.2342 346° North 442 509 34,000 -50 Level Jacksonville Center
Wed 10:06:02 PM 29.6939 -83.2703 345° North 442 509 33,900  Descending Jacksonville Center
Wed 10:07:03 PM 29.8150 -83.3044 346° North 437 503 34,000 50 Climbing Jacksonville Center
Wed 10:08:03 PM 29.9339 -83.3358 347° North 432 497 34,000  Level Jacksonville Center
Wed 10:09:03 PM 30.0528 -83.3678 347° North 432 497 34,000  Level Jacksonville Center
Wed 10:10:03 PM 30.1717 -83.4019 346° North 432 497 34,000  Level Jacksonville Center
Wed 10:11:03 PM 30.2883 -83.4339 347° North 432 497 34,000  Level Jacksonville Center
Wed 10:12:03 PM 30.4072 -83.4706 345° North 432 497 34,000  Level Jacksonville Center
Wed 10:13:03 PM 30.5261 -83.5028 347° North 432 497 34,000  Level Jacksonville Center
Wed 10:14:03 PM 30.6450 -83.5372 346° North 432 497 34,000  Level Jacksonville Center
Wed 10:15:03 PM 30.7575 -83.5719 345° North 432 497 34,000  Level Jacksonville Center
Wed 10:16:02 PM 30.8742 -83.6067 346° North 427 491 34,000  Level Jacksonville Center
Wed 10:17:02 PM 30.9950 -83.6389 347° North 427 491 34,000  Level Jacksonville Center
Wed 10:18:03 PM 31.1119 -83.6739 346° North 433 498 34,000  Level Jacksonville Center
Wed 10:19:02 PM 31.2306 -83.7114 345° North 433 498 34,000  Level Jacksonville Center
Wed 10:21:10 PM 31.4708 -83.7758 347° North 423 487 34,000  Level Atlanta Center
Wed 10:22:10 PM 31.5961 -83.8000 351° North 434 499 34,000  Level Atlanta Center
Wed 10:23:10 PM 31.7172 -83.8192 352° North 440 506 34,000  Level Atlanta Center
Wed 10:24:10 PM 31.8592 -83.8458 351° North 460 529 34,000  Level Atlanta Center
Wed 10:25:10 PM 31.9844 -83.8675 352° North 460 529 34,000  Level Atlanta Center
Wed 10:26:10 PM 32.1097 -83.8892 352° North 460 529 34,000  Level Atlanta Center
Wed 10:27:10 PM 32.2350 -83.9111 352° North 454 522 34,000  Level Atlanta Center
Wed 10:28:10 PM 32.3581 -83.9331 351° North 449 517 34,000  Level Atlanta Center
Wed 10:29:10 PM 32.4856 -83.9575 351° North 449 517 34,000  Level Atlanta Center
Wed 10:30:10 PM 32.6086 -83.9797 351° North 449 517 34,000  Level Atlanta Center
Wed 10:31:10 PM 32.7358 -84.0017 352° North 449 517 34,000  Level Atlanta Center
Wed 10:32:10 PM 32.8611 -84.0239 352° North 449 517 34,000  Level Atlanta Center
Wed 10:33:10 PM 32.9864 -84.0486 351° North 449 517 34,000  Level Atlanta Center
Wed 10:34:10 PM 33.1075 -84.0736 350° North 444 511 34,000  Level Atlanta Center
Wed 10:35:10 PM 33.2328 -84.0958 352° North 452 520 34,000  Level Atlanta Center
Wed 10:36:10 PM 33.3600 -84.1183 352° North 452 520 34,000  Level Atlanta Center
Wed 10:41:28 PM 34.1116 -84.2555 351° North 454 522 34,000  Level FlightAware ADS-B (KDZJ)
Wed 10:42:08 PM 34.1959 -84.2714 351° North 444 511 34,000  Level FlightAware ADS-B (KDZJ)
Wed 10:42:48 PM 34.2772 -84.2868 351° North 452 520 34,000  Level FlightAware ADS-B (KDZJ)
Wed 10:43:28 PM 34.3609 -84.3028 351° North 453 521 34,000  Level FlightAware ADS-B (KDZJ)
Wed 10:44:08 PM 34.4431 -84.3183 351° North 454 522 34,000  Level FlightAware ADS-B (KDZJ)
Wed 10:44:47 PM 34.5246 -84.3336 351° North 456 525 34,000  Level FlightAware ADS-B (KDZJ)
Wed 10:45:28 PM 34.6096 -84.3498 351° North 456 525 34,000  Level FlightAware ADS-B (KDZJ)
Wed 10:46:06 PM 34.6907 -84.3654 351° North 456 525 34,000  Level FlightAware ADS-B (KDZJ)
Wed 10:46:47 PM 34.7756 -84.3816 351° North 454 522 34,000  Level FlightAware ADS-B (KDZJ)
Wed 10:47:26 PM 34.8554 -84.3968 351° North 455 524 34,000  Level FlightAware ADS-B (KDZJ)
Wed 10:48:08 PM 34.9429 -84.4136 351° North 453 521 34,000  Level FlightAware ADS-B (KDZJ)
Wed 10:48:47 PM 35.0236 -84.4292 351° North 454 522 34,000  Level FlightAware ADS-B (KDZJ)
Wed 10:49:28 PM 35.1080 -84.4455 351° North 454 522 34,000  Level FlightAware ADS-B (KDZJ)
Wed 10:50:08 PM 35.1914 -84.4615 351° North 453 521 34,000  Level FlightAware ADS-B (KDZJ)
Wed 10:50:46 PM 35.2714 -84.4770 351° North 453 521 34,000 -545 Level FlightAware ADS-B (KDZJ)
Wed 10:51:25 PM 35.3506 -84.4925 351° North 443 510 33,300 -814 Descending FlightAware ADS-B (KDZJ)
Wed 10:53:06 PM 35.4797 -84.5176 351° North 451 519 32,100 -534 Descending FlightAware ADS-B (KMDQ)
Wed 10:57:36 PM 36.0572 -84.6308 351° North 474 545 30,000 -305 Descending FlightAware ADS-B (KMDQ)
Wed 11:00:38 PM 36.4510 -84.7091 351° North 477 549 29,800 -491 Descending FlightAware ADS-B (KMDQ)
Wed 11:02:29 PM 36.6962 -84.7582 351° North 484 557 27,600 -1,304 Descending FlightAware ADS-B
Wed 11:03:42 PM 36.8348 -84.7860 351° North 469 540 25,800 -1,522 Descending FlightAware ADS-B
Wed 11:04:43 PM 36.9607 -84.8112 351° North 460 529 24,200 -1,550 Descending FlightAware ADS-B
Wed 11:05:42 PM 37.1050 -84.8404 351° North 447 514 22,700 -2,750 Descending FlightAware ADS-B
Wed 11:06:43 PM 37.2250 -84.8648 351° North 418 481 18,700 -3,868 Descending FlightAware ADS-B
Wed 11:07:43 PM 37.3353 -84.8874 350° North 393 452 14,900 -3,414 Descending FlightAware ADS-B
Wed 11:08:39 PM 37.4246 -84.9061 351° North 375 432 12,100 -1,451 Descending FlightAware ADS-B
Wed 11:11:47 PM 37.6841 -84.9924 312° West 258 297 9,000 -1,088 Descending FlightAware ADS-B
Wed 11:12:25 PM 37.7188 -85.0416 312° West 252 290 8,000 -1,517 Descending FlightAware ADS-B
Wed 11:14:45 PM 37.8227 -85.1854 313° West 245 282 4,500 -1,224 Descending FlightAware ADS-B
Wed 11:15:46 PM 37.8625 -85.2420 305° West 240 276 3,900 -295 Descending FlightAware ADS-B
Wed 11:16:47 PM 37.8923 -85.3341 290° West 241 277 3,900  Level FlightAware ADS-B
Wed 11:17:46 PM 37.9137 -85.4150 287° West 241 277 3,900 -200 Level FlightAware ADS-B
Wed 11:18:47 PM 37.9336 -85.4962 287° West 239 275 3,500 -496 Descending FlightAware ADS-B
Wed 11:19:47 PM 37.9539 -85.5730 304° West 219 252 2,900 -300 Descending FlightAware ADS-B
Wed 11:20:47 PM 37.9907 -85.6203 313° West 188 216 2,900  Level FlightAware ADS-B
Wed 11:21:47 PM 38.0265 -85.6678 315° West 169 194 2,900 -252 Level FlightAware ADS-B
Wed 11:22:46 PM 38.0674 -85.6903 343° North 157 181 2,400 -455 Descending FlightAware ADS-B
Wed 11:22:53 PM 38.0667 -85.7000 208° Southwest 152 175 2,400 -761 Level Louisville TRACON
Wed 11:23:57 PM 38.1124 -85.7057 345° North 123 142 1,500 -821 Descending FlightAware ADS-B
Wed 11:24:00 PM 38.1741 -85.7365 322° Northwest  Level Estimated
Wed 11:24:50 PM 38.1350 -85.7135 345° North 118 136 800  Level FlightAware ADS-B
Wed 11:25:23 PM 38.1667 -85.7167 322° Northwest 116 133 700 -182 Descending Louisville TRACON
Wed 11:27:00 PM 38.1667 -85.7333 208° Southwest  Level FlightAware Approximate
Wed 11:28:00 PM 38.1667 -85.7333 208° Southwest  Level FlightAware Approximate

Login

Don't have an account? Register now (free) for customized features, flight alerts, and more!